Time;durP1;ratioP1;P1;durP2;ratioP2;P2;SDS_P1;SDS_P2;PMS_P1;PMS_P2;Temp;Humidity;BMP_temperature;BMP_pressure;BME280_temperature;BME280_humidity;BME280_pressure;Samples;Min_cycle;Max_cycle;Signal;HPM_P1;HPM_P2
2022/01/31 00:02:19;;;;;;;3.95;2.20;;;;;;;;;;4913144;29;20036;-66
2022/01/31 00:04:47;;;;;;;4.00;2.00;;;;;;;21.67;23.20;94526.41;4932729;29;20042;-67
2022/01/31 00:07:13;;;;;;;3.75;2.10;;;;;;;21.64;23.16;94522.41;4926077;29;20273;-66
2022/01/31 00:09:40;;;;;;;3.67;2.20;;;;;;;21.63;23.25;94528.78;4943421;29;20162;-67
2022/01/31 00:12:16;;;;;;;3.40;2.10;;;;;;;21.65;23.25;94517.94;4937780;29;20039;-67
2022/01/31 00:14:44;;;;;;;5.65;2.15;;;;;;;21.65;23.39;94517.94;4916250;29;20028;-67
2022/01/31 00:17:10;;;;;;;3.65;2.30;;;;;;;21.64;23.07;94513.69;4931950;29;20027;-67
2022/01/31 00:19:36;;;;;;;4.22;2.20;;;;;;;21.64;23.12;94511.03;4935413;29;20028;-67
2022/01/31 00:22:05;;;;;;;2.88;1.70;;;;;;;21.62;23.23;94505.22;4955292;28;20036;-66
2022/01/31 00:24:30;;;;;;;5.38;2.10;;;;;;;21.63;23.28;94497.03;4946834;28;20035;-67
2022/01/31 00:26:56;;;;;;;3.92;1.90;;;;;;;21.60;23.04;94502.03;4915528;29;20132;-67
2022/01/31 00:29:21;;;;;;;5.03;2.40;;;;;;;21.61;23.12;94487.72;4930407;29;20043;-67
2022/01/31 00:31:47;;;;;;;5.25;2.38;;;;;;;21.61;22.88;94482.44;4930615;29;20028;-67
2022/01/31 00:34:12;;;;;;;4.43;2.03;;;;;;;21.59;22.84;94473.97;4924116;29;20068;-67
2022/01/31 00:36:37;;;;;;;3.53;1.80;;;;;;;21.58;23.32;94481.13;4929952;29;20032;-67
2022/01/31 00:39:03;;;;;;;3.38;2.05;;;;;;;21.58;23.12;94489.06;4930639;29;20066;-66
2022/01/31 00:41:28;;;;;;;3.58;1.98;;;;;;;21.57;23.08;94481.38;4934721;29;20027;-67
2022/01/31 00:43:59;;;;;;;4.35;2.20;;;;;;;21.58;22.85;94483.00;4913181;29;20047;-67
2022/01/31 00:46:31;;;;;;;;;;;;;;;22.05;22.51;94466.81;4943853;28;20036;-66
2022/01/31 00:49:16;;;;;;;2.45;1.73;;;;;;;21.73;22.88;94472.41;4986731;28;19917;-67
2022/01/31 00:51:42;;;;;;;4.78;2.00;;;;;;;21.65;23.37;94463.13;4946064;28;20546;-67
2022/01/31 00:54:07;;;;;;;4.13;2.20;;;;;;;21.64;22.90;94444.88;4947526;28;20124;-67
2022/01/31 00:56:35;;;;;;;4.03;2.10;;;;;;;21.62;22.95;94441.69;4946749;28;20026;-67
2022/01/31 00:59:00;;;;;;;3.28;2.10;;;;;;;21.61;23.00;94434.81;4952093;28;20090;-67
2022/01/31 01:01:29;;;;;;;3.38;1.80;;;;;;;21.58;23.22;94424.78;4951851;28;20097;-67
2022/01/31 01:04:14;;;;;;;4.07;2.08;;;;;;;21.63;23.24;94422.13;4934282;29;20031;-67
2022/01/31 01:06:43;;;;;;;5.05;2.05;;;;;;;21.62;23.15;94417.88;4893196;29;20042;-66
2022/01/31 01:09:08;;;;;;;3.92;2.08;;;;;;;21.60;23.15;94396.97;4896086;29;20031;-67
2022/01/31 01:11:34;;;;;;;3.15;2.00;;;;;;;21.60;23.14;94389.03;4911562;29;20028;-66
2022/01/31 01:13:59;;;;;;;3.92;2.00;;;;;;;21.60;23.09;94399.63;4895955;29;20182;-67
2022/01/31 01:16:37;;;;;;;3.60;2.20;;;;;;;21.63;22.95;94406.25;4914423;29;20046;-67
2022/01/31 01:19:03;;;;;;;3.70;2.10;;;;;;;21.60;23.17;94396.97;4901644;29;20036;-67
2022/01/31 01:21:29;;;;;;;3.50;2.13;;;;;;;21.60;23.01;94389.03;4886448;29;20047;-67
2022/01/31 01:23:54;;;;;;;4.32;2.25;;;;;;;21.62;22.96;94389.56;4876198;29;20044;-67
2022/01/31 01:26:19;;;;;;;3.47;2.08;;;;;;;21.62;23.12;94384.28;4894879;29;20028;-66
2022/01/31 01:28:46;;;;;;;6.10;2.10;;;;;;;21.62;23.17;94388.78;4892283;29;20144;-66
2022/01/31 01:31:14;;;;;;;3.25;1.77;;;;;;;21.62;22.95;94394.06;4889399;29;20142;-67
2022/01/31 01:33:49;;;;;;;3.72;1.83;;;;;;;21.60;22.95;94393.56;4874345;29;20124;-67
2022/01/31 01:36:14;;;;;;;3.75;2.15;;;;;;;21.62;23.23;94386.13;4867592;29;20044;-67
2022/01/31 01:38:39;;;;;;;4.03;2.25;;;;;;;21.63;23.13;94374.50;4892421;29;20037;-67
2022/01/31 01:41:05;;;;;;;3.88;2.30;;;;;;;21.61;23.08;94363.38;4883018;29;20039;-67
2022/01/31 01:43:30;;;;;;;4.22;2.25;;;;;;;21.62;23.26;94378.19;4898306;29;20023;-67
2022/01/31 01:45:56;;;;;;;4.95;2.60;;;;;;;21.62;23.20;94380.84;4910444;29;20032;-67
2022/01/31 01:48:24;;;;;;;3.72;2.42;;;;;;;21.60;23.21;94385.59;4911561;29;20060;-67
2022/01/31 01:51:02;;;;;;;3.55;2.63;;;;;;;21.59;23.34;94400.69;4918620;29;20038;-67
2022/01/31 01:53:27;;;;;;;3.92;2.55;;;;;;;21.59;23.31;94405.19;4917337;28;20066;-67
2022/01/31 01:55:53;;;;;;;4.07;3.03;;;;;;;21.59;23.51;94416.56;4931550;29;20040;-67
2022/01/31 01:58:23;;;;;;;4.32;3.10;;;;;;;21.57;23.63;94409.94;4928973;29;20110;-67
2022/01/31 02:00:50;;;;;;;5.37;3.27;;;;;;;21.62;23.42;94397.50;4920666;29;20043;-67
2022/01/31 02:03:16;;;;;;;6.63;3.45;;;;;;;21.57;23.43;94378.19;4919914;29;20027;-67
2022/01/31 02:05:42;;;;;;;5.22;3.25;;;;;;;21.59;23.59;94378.72;4913667;29;20150;-67
2022/01/31 02:08:08;;;;;;;5.80;3.40;;;;;;;21.58;23.34;94370.00;4925546;29;20071;-67
2022/01/31 02:10:33;;;;;;;5.93;3.65;;;;;;;21.58;23.58;94377.16;4913341;29;20023;-66
2022/01/31 02:13:06;;;;;;;4.15;3.15;;;;;;;21.54;23.68;94378.75;4935904;29;20023;-67
2022/01/31 02:15:32;;;;;;;4.55;3.50;;;;;;;21.57;23.38;94376.38;4955766;28;20040;-67
2022/01/31 02:17:57;;;;;;;6.22;3.38;;;;;;;21.56;23.30;94356.25;4921397;29;20031;-67
2022/01/31 02:20:23;;;;;;;5.00;3.33;;;;;;;21.54;23.31;94345.13;4925121;29;20072;-67
2022/01/31 02:22:49;;;;;;;4.63;3.13;;;;;;;21.54;23.41;94341.69;4913626;29;20027;-66
2022/01/31 02:25:14;;;;;;;5.05;3.10;;;;;;;21.53;23.19;94359.41;4914376;29;20020;-67
2022/01/31 02:27:40;;;;;;;6.78;2.90;;;;;;;21.55;23.24;94346.72;4913573;29;20047;-67
2022/01/31 02:30:07;;;;;;;4.80;2.88;;;;;;;21.55;23.40;94330.03;4909991;29;20051;-67
2022/01/31 02:32:34;;;;;;;5.10;2.80;;;;;;;21.54;23.40;94334.56;4913555;29;20034;-67
2022/01/31 02:34:59;;;;;;;6.15;3.17;;;;;;;21.58;23.31;94340.09;4923515;29;20114;-66
2022/01/31 02:37:25;;;;;;;4.07;2.83;;;;;;;21.59;23.02;94326.59;4927739;29;20042;-66
2022/01/31 02:39:50;;;;;;;4.88;2.90;;;;;;;21.59;23.09;94317.84;4917859;29;20039;-67
2022/01/31 02:42:16;;;;;;;4.43;2.70;;;;;;;21.59;23.34;94309.91;4909391;29;20035;-67
2022/01/31 02:44:45;;;;;;;3.78;2.78;;;;;;;21.57;23.31;94307.56;4948040;28;20039;-67
2022/01/31 02:47:15;;;;;;;4.18;2.83;;;;;;;21.60;23.15;94295.63;4907534;29;20038;-66
2022/01/31 02:50:00;;;;;;;5.97;2.90;;;;;;;21.61;23.24;94297.22;4929483;29;20043;-67
2022/01/31 02:52:29;;;;;;;6.18;2.90;;;;;;;21.57;23.19;94296.97;4920762;29;20028;-67
2022/01/31 02:54:54;;;;;;;3.72;2.65;;;;;;;21.58;23.10;94297.75;4912544;29;20051;-67
2022/01/31 02:57:20;;;;;;;5.18;2.90;;;;;;;21.60;23.03;94303.59;4928559;29;20039;-67
2022/01/31 02:59:45;;;;;;;4.82;3.10;;;;;;;21.59;23.35;94309.91;4928541;29;20031;-66
2022/01/31 03:02:14;;;;;;;3.40;2.60;;;;;;;21.59;23.26;94305.44;4926099;29;20031;-67
2022/01/31 03:04:39;;;;;;;4.70;2.90;;;;;;;21.58;23.40;94314.44;4931332;29;20071;-67
2022/01/31 03:07:05;;;;;;;5.28;3.03;;;;;;;21.57;23.41;94309.41;4923585;29;20028;-67
2022/01/31 03:09:30;;;;;;;4.10;2.90;;;;;;;21.56;23.43;94294.59;4938218;29;20099;-66
2022/01/31 03:11:56;;;;;;;4.53;3.00;;;;;;;21.58;23.39;94298.56;4915412;29;20023;-67
2022/01/31 03:14:22;;;;;;;5.25;3.08;;;;;;;21.56;23.46;94300.69;4913654;29;20047;-67
2022/01/31 03:16:47;;;;;;;7.53;3.30;;;;;;;21.55;23.20;94293.00;4946191;29;20042;-66
2022/01/31 03:19:13;;;;;;;4.47;2.90;;;;;;;21.50;23.18;94291.19;4910589;29;20047;-66
2022/01/31 03:21:51;;;;;;;3.33;2.95;;;;;;;21.46;23.30;94290.91;4922951;29;20056;-67
2022/01/31 03:24:19;;;;;;;4.68;2.85;;;;;;;21.51;23.11;94286.66;4940067;28;20036;-67
2022/01/31 03:26:44;;;;;;;5.18;3.03;;;;;;;21.48;23.11;94288.78;4948815;29;20035;-67
2022/01/31 03:29:10;;;;;;;5.97;2.75;;;;;;;21.48;23.14;94293.28;4940947;29;20047;-66
2022/01/31 03:31:35;;;;;;;4.72;2.85;;;;;;;21.42;23.30;94297.78;4936234;28;20038;-67
2022/01/31 03:34:03;;;;;;;5.57;3.20;;;;;;;21.41;23.23;94309.41;4940730;29;20189;-66
2022/01/31 03:36:28;;;;;;;3.97;2.45;;;;;;;21.41;23.09;94308.63;4929943;29;20028;-67
2022/01/31 03:39:02;;;;;;;4.03;2.72;;;;;;;21.42;23.07;94305.72;4915009;29;20035;-67
2022/01/31 03:41:28;;;;;;;3.85;2.40;;;;;;;21.41;22.92;94282.94;4932884;29;20151;-67
2022/01/31 03:43:53;;;;;;;2.58;2.38;;;;;;;21.45;23.17;94289.31;4931927;29;20031;-67
2022/01/31 03:46:18;;;;;;;4.63;2.70;;;;;;;21.48;22.67;94288.78;4925511;29;20027;-66
2022/01/31 03:48:45;;;;;;;3.63;2.30;;;;;;;21.47;22.68;94289.84;4915929;29;20031;-66
2022/01/31 03:51:11;;;;;;;5.30;2.70;;;;;;;21.44;22.86;94300.97;4923280;29;20036;-67
2022/01/31 03:53:36;;;;;;;4.15;2.60;;;;;;;21.43;22.79;94307.28;4924134;29;20078;-67
2022/01/31 03:56:01;;;;;;;3.90;2.35;;;;;;;21.39;22.54;94310.75;4922413;29;20056;-67
2022/01/31 03:58:27;;;;;;;3.20;2.50;;;;;;;21.37;22.59;94304.94;4940166;28;20083;-67
2022/01/31 04:00:52;;;;;;;3.40;2.60;;;;;;;21.34;22.80;94293.00;4918487;29;20047;-67
2022/01/31 04:03:18;;;;;;;3.15;2.40;;;;;;;21.32;22.64;94289.84;4931698;29;20031;-66
2022/01/31 04:05:43;;;;;;;3.00;2.40;;;;;;;21.30;22.98;94278.75;4914175;29;20059;-67
2022/01/31 04:08:09;;;;;;;4.10;2.63;;;;;;;21.26;22.79;94261.81;4937519;29;20035;-66
2022/01/31 04:10:35;;;;;;;3.20;2.40;;;;;;;21.22;22.63;94244.91;4923082;29;20043;-66
2022/01/31 04:13:00;;;;;;;3.83;2.58;;;;;;;21.21;22.67;94235.38;4916495;29;20032;-67
2022/01/31 04:15:26;;;;;;;4.13;2.78;;;;;;;21.15;22.45;94225.88;4914538;29;20035;-66
2022/01/31 04:17:51;;;;;;;6.13;2.97;;;;;;;21.12;22.52;94221.16;4931184;29;20043;-66
2022/01/31 04:20:21;;;;;;;3.67;2.72;;;;;;;21.04;22.38;94215.34;4915592;29;20036;-66
2022/01/31 04:22:58;;;;;;;4.85;2.67;;;;;;;21.08;22.46;94234.88;4941149;29;20035;-67
2022/01/31 04:25:42;;;;;;;;;;;;;;;;;;;;;
2022/01/31 04:28:02;;;;;;;4.10;2.85;;;;;;;20.99;22.49;94225.13;4935564;29;20031;-67
2022/01/31 04:30:29;;;;;;;3.42;2.50;;;;;;;20.99;22.46;94247.06;4921743;29;20030;-66
2022/01/31 04:33:04;;;;;;;3.10;2.50;;;;;;;21.01;22.71;94255.53;4931396;29;20138;-67
2022/01/31 04:35:29;;;;;;;4.90;2.58;;;;;;;21.01;22.62;94252.88;4930648;29;20038;-67
2022/01/31 04:37:58;;;;;;;3.70;2.30;;;;;;;20.99;22.73;94241.78;4934692;29;20027;-66
2022/01/31 04:40:23;;;;;;;3.20;2.42;;;;;;;21.04;22.49;94214.56;4928556;29;20031;-67
2022/01/31 04:42:49;;;;;;;3.72;2.75;;;;;;;21.06;22.26;94196.56;4930215;29;20042;-67
2022/01/31 04:45:14;;;;;;;3.50;2.53;;;;;;;21.06;22.32;94197.34;4941259;29;20070;-67
2022/01/31 04:47:39;;;;;;;4.88;2.70;;;;;;;21.08;22.54;94186.53;4914875;29;20039;-67
2022/01/31 04:50:14;;;;;;;3.80;2.70;;;;;;;21.04;22.35;94180.97;4922462;29;20032;-66
2022/01/31 04:52:42;;;;;;;4.05;2.55;;;;;;;21.05;22.44;94187.03;4934460;29;20056;-66
2022/01/31 04:55:11;;;;;;;4.63;2.47;;;;;;;21.01;22.35;94189.44;4940248;29;20039;-66
2022/01/31 04:57:39;;;;;;;4.43;2.50;;;;;;;21.03;22.33;94192.59;4946694;28;20032;-66
2022/01/31 05:00:05;;;;;;;3.90;2.75;;;;;;;20.98;22.29;94192.63;4935899;29;20068;-67
2022/01/31 05:02:33;;;;;;;3.97;2.63;;;;;;;20.99;22.34;94183.63;4913550;29;20031;-67
2022/01/31 05:04:58;;;;;;;3.67;2.50;;;;;;;20.97;22.67;94183.09;4919467;29;20040;-67
2022/01/31 05:07:27;;;;;;;4.82;2.70;;;;;;;20.97;22.36;94185.75;4916800;29;20035;-67
2022/01/31 05:09:52;;;;;;;4.13;2.58;;;;;;;20.98;22.73;94183.88;4927478;29;20035;-67
2022/01/31 05:12:18;;;;;;;3.45;2.83;;;;;;;20.98;22.51;94192.63;4914675;29;20079;-67
2022/01/31 05:14:43;;;;;;;4.45;2.70;;;;;;;20.99;22.63;94202.13;4939152;28;20035;-67
2022/01/31 05:17:08;;;;;;;3.40;2.70;;;;;;;20.96;22.35;94201.88;4914289;29;20125;-67
2022/01/31 05:19:34;;;;;;;3.55;2.88;;;;;;;20.96;22.72;94193.94;4933291;28;20102;-67
2022/01/31 05:22:08;;;;;;;4.00;2.80;;;;;;;20.95;22.79;94179.94;4928160;29;20019;-66
2022/01/31 05:24:36;;;;;;;5.10;2.95;;;;;;;20.96;22.57;94170.97;4929122;29;20051;-67
2022/01/31 05:27:02;;;;;;;4.15;2.67;;;;;;;20.97;22.45;94169.88;4912652;29;20063;-67
2022/01/31 05:29:27;;;;;;;3.83;2.80;;;;;;;20.97;22.65;94158.53;4919916;29;20028;-66
2022/01/31 05:31:53;;;;;;;4.55;2.90;;;;;;;20.99;22.62;94148.47;4929638;29;20032;-66
2022/01/31 05:34:19;;;;;;;4.25;2.67;;;;;;;20.99;22.43;94135.25;4931268;28;20043;-67
2022/01/31 05:36:45;;;;;;;3.22;2.58;;;;;;;20.99;22.67;94143.97;4920049;29;20039;-66
2022/01/31 05:39:11;;;;;;;4.20;2.45;;;;;;;21.01;22.58;94141.06;4919042;29;20121;-66
2022/01/31 05:41:36;;;;;;;3.85;2.40;;;;;;;21.00;22.52;94127.06;4912425;29;20038;-66
2022/01/31 05:44:22;;;;;;;3.20;2.85;;;;;;;21.03;22.86;94118.56;4908265;29;20027;-66
2022/01/31 05:46:48;;;;;;;3.75;2.90;;;;;;;20.98;22.54;94137.13;4927954;29;20063;-67
2022/01/31 05:49:13;;;;;;;4.40;2.97;;;;;;;20.97;22.50;94134.72;4896221;29;20051;-67
2022/01/31 05:51:51;;;;;;;3.35;2.78;;;;;;;20.96;22.97;94118.09;4904790;29;20046;-66
2022/01/31 05:54:16;;;;;;;4.07;3.00;;;;;;;20.98;22.56;94125.72;4921407;29;20043;-67
2022/01/31 05:56:47;;;;;;;4.32;3.25;;;;;;;20.89;23.03;94109.66;4911934;28;20083;-67
2022/01/31 05:59:13;;;;;;;3.72;3.20;;;;;;;20.88;22.82;94124.69;4925979;29;20058;-66
2022/01/31 06:01:39;;;;;;;4.05;3.53;;;;;;;20.87;22.93;94124.97;4894303;29;20036;-66
2022/01/31 06:04:07;;;;;;;4.32;3.60;;;;;;;20.78;22.90;94131.88;4925819;29;20039;-67
2022/01/31 06:06:33;;;;;;;4.68;3.63;;;;;;;20.77;22.95;94141.66;4905642;29;20031;-67
2022/01/31 06:08:58;;;;;;;5.57;3.70;;;;;;;20.73;22.87;94129.22;4895699;29;20099;-67
2022/01/31 06:11:26;;;;;;;4.82;3.45;;;;;;;20.73;22.96;94121.31;4912466;29;20129;-67
2022/01/31 06:13:52;;;;;;;5.75;3.33;;;;;;;20.68;22.89;94114.97;4906168;28;20031;-67
2022/01/31 06:16:26;;;;;;;4.80;3.85;;;;;;;20.66;22.97;94101.25;4908775;29;20035;-67
2022/01/31 06:18:52;;;;;;;4.25;3.60;;;;;;;20.71;23.29;94103.06;4931270;29;20040;-66
2022/01/31 06:21:17;;;;;;;4.78;3.33;;;;;;;20.74;23.14;94107.06;4912624;29;20052;-67
2022/01/31 06:23:43;;;;;;;4.85;3.65;;;;;;;20.75;22.86;94101.47;4900334;29;20036;-67
2022/01/31 06:26:09;;;;;;;3.58;3.00;;;;;;;20.74;22.94;94093.84;4935678;29;20032;-67
2022/01/31 06:28:34;;;;;;;3.65;3.30;;;;;;;20.74;22.43;94077.97;4948293;28;20045;-67
2022/01/31 06:31:00;;;;;;;4.80;3.10;;;;;;;20.72;22.53;94086.16;4906378;29;20032;-67
2022/01/31 06:33:25;;;;;;;3.45;3.15;;;;;;;20.73;22.79;94094.88;4939793;29;20035;-67
2022/01/31 06:35:59;;;;;;;4.25;3.10;;;;;;;20.70;22.92;94099.66;4914594;29;20039;-68
2022/01/31 06:38:25;;;;;;;3.88;3.05;;;;;;;20.69;22.73;94087.50;4942063;28;20028;-67
2022/01/31 06:40:51;;;;;;;3.63;3.30;;;;;;;20.66;22.55;94088.03;4912345;29;20039;-67
2022/01/31 06:43:16;;;;;;;3.90;2.97;;;;;;;20.66;22.73;94085.41;4928552;29;20047;-66
2022/01/31 06:45:42;;;;;;;3.38;2.85;;;;;;;20.64;22.56;94081.44;4911020;29;20031;-66
2022/01/31 06:48:07;;;;;;;3.85;2.90;;;;;;;20.62;22.59;94087.00;4912395;29;20091;-66
2022/01/31 06:50:33;;;;;;;3.60;3.10;;;;;;;20.60;22.41;94073.25;4929878;29;20092;-67
2022/01/31 06:53:00;;;;;;;3.92;3.05;;;;;;;20.60;22.40;94053.97;4933007;29;20090;-67
2022/01/31 06:55:30;;;;;;;4.93;3.03;;;;;;;20.55;22.42;94067.16;4933621;29;20432;-67
2022/01/31 06:57:55;;;;;;;3.45;2.80;;;;;;;20.57;22.24;94073.75;4931385;29;20088;-67
2022/01/31 07:00:21;;;;;;;3.38;3.08;;;;;;;20.58;22.49;94064.78;4927724;29;20044;-67
2022/01/31 07:02:47;;;;;;;3.30;2.90;;;;;;;20.57;22.22;94076.41;4913107;29;20042;-67
2022/01/31 07:05:15;;;;;;;2.90;2.55;;;;;;;20.57;22.30;94065.84;4930547;29;20102;-67
2022/01/31 07:07:43;;;;;;;3.33;2.67;;;;;;;20.51;22.40;94064.28;4925854;29;20035;-67
2022/01/31 07:10:09;;;;;;;3.47;2.67;;;;;;;20.55;22.04;94054.75;4912438;29;20494;-66
2022/01/31 07:12:38;;;;;;;4.65;2.60;;;;;;;20.50;22.35;94071.41;4929021;29;20042;-67
2022/01/31 07:15:20;;;;;;;4.43;2.40;;;;;;;20.54;22.31;94063.72;4932441;29;20090;-67
2022/01/31 07:17:46;;;;;;;3.22;2.40;;;;;;;20.55;22.09;94056.59;4920986;29;20047;-67
2022/01/31 07:20:20;;;;;;;5.97;2.20;;;;;;;20.50;22.55;94070.59;4927950;29;20046;-67
2022/01/31 07:22:51;;;;;;;3.67;2.30;;;;;;;20.52;22.33;94055.28;4932920;28;20027;-67
2022/01/31 07:28:17;;;;;;;3.60;2.08;;;;;;;20.53;21.86;94067.44;4950890;28;20035;-67
2022/01/31 07:30:45;;;;;;;2.83;1.90;;;;;;;20.46;22.14;94066.91;4942631;28;20043;-67
2022/01/31 07:33:12;;;;;;;2.75;1.90;;;;;;;20.51;21.81;94061.63;4938913;28;20087;-67
2022/01/31 07:35:37;;;;;;;5.03;2.08;;;;;;;20.50;21.85;94054.75;4964421;28;20069;-67
2022/01/31 07:38:03;;;;;;;2.80;2.03;;;;;;;20.55;22.00;94060.03;4946984;28;20039;-67
2022/01/31 07:40:28;;;;;;;2.88;2.00;;;;;;;20.53;21.90;94051.59;4963386;28;20039;-67
2022/01/31 07:42:54;;;;;;;2.88;2.00;;;;;;;20.49;21.64;94034.69;4931994;28;20112;-67
2022/01/31 07:45:19;;;;;;;3.78;1.80;;;;;;;20.52;21.93;94028.84;4931267;28;20047;-67
2022/01/31 07:47:45;;;;;;;2.78;1.90;;;;;;;20.53;21.76;94021.75;4906186;29;20079;-67
2022/01/31 07:50:11;;;;;;;2.50;1.88;;;;;;;20.50;21.80;94023.88;4903076;29;20402;-67
2022/01/31 07:52:37;;;;;;;2.85;1.90;;;;;;;20.49;21.57;94014.34;4910829;28;20032;-67
2022/01/31 07:55:03;;;;;;;4.40;1.92;;;;;;;20.53;21.70;94011.19;4910296;29;20148;-67
2022/01/31 07:57:38;;;;;;;2.78;1.70;;;;;;;20.52;21.76;94018.28;4915127;29;20043;-67
2022/01/31 08:00:04;;;;;;;2.88;1.67;;;;;;;20.51;21.61;94006.94;4902211;29;20119;-67
2022/01/31 08:02:29;;;;;;;2.80;1.70;;;;;;;20.54;21.57;94010.09;4897069;29;20028;-67
2022/01/31 08:04:55;;;;;;;2.90;1.95;;;;;;;20.55;21.75;93991.34;4912874;28;20040;-67
2022/01/31 08:07:21;;;;;;;4.07;1.60;;;;;;;20.58;21.68;93990.81;4896916;29;20036;-67
2022/01/31 08:09:47;;;;;;;1.75;1.50;;;;;;;20.58;21.32;93979.44;4898585;29;20071;-67
2022/01/31 08:12:12;;;;;;;3.47;1.77;;;;;;;20.54;21.57;93981.81;4925986;29;20024;-67
2022/01/31 08:14:38;;;;;;;3.42;1.65;;;;;;;20.56;21.33;93965.72;4896729;29;20042;-67
2022/01/31 08:17:03;;;;;;;3.33;1.60;;;;;;;20.59;21.61;93965.97;4897289;29;20028;-67
2022/01/31 08:19:29;;;;;;;2.13;1.67;;;;;;;20.58;21.39;93984.72;4911984;29;20131;-67
2022/01/31 08:21:55;;;;;;;2.15;1.50;;;;;;;20.58;21.45;93958.31;4910658;29;20036;-67
2022/01/31 08:24:20;;;;;;;2.53;1.48;;;;;;;20.55;21.50;93964.94;4905965;29;20028;-67
2022/01/31 08:26:46;;;;;;;3.95;1.70;;;;;;;20.55;21.51;93964.16;4912772;29;20035;-67
2022/01/31 08:29:32;;;;;;;2.95;1.52;;;;;;;20.58;21.42;93963.59;4896150;29;20043;-67
2022/01/31 08:32:00;;;;;;;2.22;1.55;;;;;;;20.54;21.08;93936.16;4900402;29;20107;-67
2022/01/31 08:37:15;;;;;;;2.67;1.50;;;;;;;20.47;20.79;93931.16;4916602;29;20069;-67
2022/01/31 08:39:43;;;;;;;2.42;1.52;;;;;;;20.46;21.14;93926.94;4903101;29;20036;-67
2022/01/31 08:42:09;;;;;;;1.98;1.45;;;;;;;20.48;21.21;93908.97;4893186;29;20052;-67
2022/01/31 08:44:34;;;;;;;2.63;1.48;;;;;;;20.49;21.23;93911.34;4900789;29;20028;-67
2022/01/31 08:47:00;;;;;;;2.22;1.50;;;;;;;20.53;21.10;93905.53;4912871;29;20035;-67
2022/01/31 08:49:26;;;;;;;3.00;1.65;;;;;;;20.44;21.23;93906.06;4916391;29;20035;-67
2022/01/31 08:51:52;;;;;;;2.80;1.70;;;;;;;20.44;21.22;93911.34;4911359;29;20116;-67
2022/01/31 08:54:17;;;;;;;2.40;1.70;;;;;;;20.47;21.40;93902.13;4926407;29;20040;-67
2022/01/31 08:56:45;;;;;;;2.80;1.60;;;;;;;20.48;21.45;93898.41;4912909;29;20096;-67
2022/01/31 08:59:16;;;;;;;2.38;1.50;;;;;;;20.47;21.40;93888.91;4925671;29;20047;-67
2022/01/31 09:01:43;;;;;;;1.98;1.45;;;;;;;20.50;21.33;93877.78;4918461;29;20066;-67
2022/01/31 09:04:09;;;;;;;2.25;1.67;;;;;;;20.48;21.46;93899.19;4913815;28;20083;-67
2022/01/31 09:06:34;;;;;;;1.92;1.60;;;;;;;20.53;21.24;93898.38;4911654;29;20040;-67
2022/01/31 09:09:02;;;;;;;2.65;1.55;;;;;;;20.49;21.65;93902.63;4896294;29;20055;-67
2022/01/31 09:11:28;;;;;;;2.20;1.40;;;;;;;20.47;21.50;93894.19;4893635;29;20040;-67
2022/01/31 09:13:54;;;;;;;2.13;1.15;;;;;;;20.49;21.33;93902.63;4916783;29;20028;-67
2022/01/31 09:16:19;;;;;;;4.15;1.30;;;;;;;20.44;21.54;93889.44;4894330;29;20043;-67
2022/01/31 09:18:45;;;;;;;1.45;1.10;;;;;;;20.45;21.89;93891.03;4903522;29;20099;-67
2022/01/31 09:21:10;;;;;;;1.90;1.10;;;;;;;20.43;21.92;93883.38;4907612;29;20032;-66
2022/01/31 09:23:37;;;;;;;1.77;1.20;;;;;;;20.43;21.99;93866.75;4900944;29;20030;-67
2022/01/31 09:26:02;;;;;;;1.42;1.00;;;;;;;20.37;22.35;93884.47;4896558;29;20108;-67
2022/01/31 09:28:35;;;;;;;1.73;1.00;;;;;;;20.37;22.72;93894.22;4895431;29;20031;-66
2022/01/31 09:31:01;;;;;;;1.75;1.08;;;;;;;20.37;22.61;93875.75;4909497;29;20064;-67
2022/01/31 09:33:26;;;;;;;1.30;1.00;;;;;;;20.37;22.83;93871.25;4899618;29;20056;-67
2022/01/31 09:35:52;;;;;;;1.52;1.10;;;;;;;20.33;23.13;93887.91;4892234;29;20044;-67
2022/01/31 09:38:22;;;;;;;1.13;0.90;;;;;;;20.34;22.97;93898.19;4915300;29;20067;-67
2022/01/31 09:40:47;;;;;;;1.73;1.00;;;;;;;20.37;23.54;93873.91;4911595;29;20024;-67
2022/01/31 09:46:46;;;;;;;1.43;0.90;;;;;;;20.38;23.80;93878.09;4944996;28;20031;-67
2022/01/31 09:49:11;;;;;;;1.15;0.80;;;;;;;20.37;23.80;93878.38;4930070;28;20047;-67
2022/01/31 09:51:39;;;;;;;1.08;0.80;;;;;;;20.34;24.02;93878.94;4947319;28;20046;-66
2022/01/31 09:54:05;;;;;;;1.27;0.73;;;;;;;20.35;24.26;93891.06;4927196;29;20113;-66
2022/01/31 09:56:33;;;;;;;1.00;0.90;;;;;;;20.32;23.83;93879.19;4931618;29;20062;-66
2022/01/31 09:58:59;;;;;;;1.10;0.70;;;;;;;20.33;24.40;93891.31;4939835;28;20042;-67
2022/01/31 10:01:33;;;;;;;0.98;0.70;;;;;;;20.29;24.58;93871.81;4930344;29;20031;-67
2022/01/31 10:04:14;;;;;;;1.08;0.80;;;;;;;20.31;24.67;93872.31;4946847;28;20118;-67
2022/01/31 10:06:40;;;;;;;1.63;0.90;;;;;;;20.26;24.74;93907.47;4953674;28;20034;-67
2022/01/31 10:09:13;;;;;;;1.05;0.95;;;;;;;20.21;24.98;93894.28;4931008;28;20058;-67
2022/01/31 10:11:53;;;;;;;1.05;0.90;;;;;;;20.26;25.07;93880.28;4929629;28;20035;-67
2022/01/31 10:17:20;;;;;;;0.88;0.63;;;;;;;20.25;25.26;93874.19;4933440;29;20046;-67
2022/01/31 10:19:46;;;;;;;0.60;0.60;;;;;;;20.27;25.12;93895.84;4946460;28;20058;-67
2022/01/31 10:22:16;;;;;;;0.65;0.65;;;;;;;20.20;25.18;93890.09;4912772;29;20048;-67
2022/01/31 10:24:47;;;;;;;1.48;0.80;;;;;;;20.21;25.47;93909.34;4914585;29;20036;-67
2022/01/31 10:27:21;;;;;;;0.70;0.68;;;;;;;20.23;25.46;93888.75;4910014;29;20082;-67
2022/01/31 10:29:47;;;;;;;0.60;0.60;;;;;;;20.21;25.65;93896.16;4898907;29;20115;-67
2022/01/31 10:32:30;;;;;;;1.00;0.70;;;;;;;20.20;25.45;93890.09;4896036;29;20039;-66
2022/01/31 10:35:06;;;;;;;0.93;0.70;;;;;;;20.20;25.52;93892.72;4895933;29;20131;-67
2022/01/31 10:37:34;;;;;;;1.27;0.60;;;;;;;20.21;25.57;93881.09;4913264;29;20047;-66
2022/01/31 10:57:01;;;;;;;0.73;0.60;;;;;;;20.33;25.63;93891.31;4911232;29;20067;-66
2022/01/31 10:59:36;;;;;;;1.02;0.80;;;;;;;20.30;25.80;93889.25;4901315;29;20036;-67
2022/01/31 11:02:03;;;;;;;0.50;0.50;;;;;;;20.25;25.77;93878.69;4916893;29;20042;-67
2022/01/31 11:04:33;;;;;;;0.63;0.60;;;;;;;20.22;26.19;93874.75;4900020;29;20114;-66
2022/01/31 11:07:00;;;;;;;1.35;0.70;;;;;;;20.26;26.17;93878.44;4898500;29;20216;-67
2022/01/31 11:09:35;;;;;;;0.50;0.50;;;;;;;20.25;26.28;93884.75;4915704;29;20031;-66
2022/01/31 11:12:00;;;;;;;0.60;0.60;;;;;;;20.23;26.03;93886.88;4900238;29;20043;-66
2022/01/31 11:14:26;;;;;;;0.50;0.50;;;;;;;20.22;26.25;93887.97;4903021;29;20036;-67
2022/01/31 11:16:51;;;;;;;0.80;0.70;;;;;;;20.22;26.30;93882.69;4898920;29;20208;-67
2022/01/31 11:19:23;;;;;;;2.20;0.70;;;;;;;20.23;26.45;93876.31;4893488;29;20043;-66
2022/01/31 11:21:49;;;;;;;1.20;0.70;;;;;;;20.22;26.30;93892.44;4923198;29;20039;-66
2022/01/31 11:24:38;;;;;;;1.27;0.80;;;;;;;20.19;26.38;93890.34;4885510;29;20032;-66
2022/01/31 11:27:06;;;;;;;1.33;0.90;;;;;;;20.19;26.54;93891.13;4894926;29;20044;-67
2022/01/31 11:29:33;;;;;;;2.00;0.80;;;;;;;20.22;26.41;93903.00;4902058;29;20058;-67
2022/01/31 11:31:59;;;;;;;1.42;0.75;;;;;;;20.18;26.40;93908.03;4891913;29;20131;-67
2022/01/31 11:34:25;;;;;;;1.48;0.80;;;;;;;20.19;26.52;93912.25;4901662;29;20028;-67
2022/01/31 11:36:51;;;;;;;3.17;0.80;;;;;;;20.14;26.42;93901.69;4898333;29;20096;-66
2022/01/31 11:39:17;;;;;;;0.95;0.70;;;;;;;20.13;26.41;93886.94;4895066;29;20032;-66
2022/01/31 11:42:02;;;;;;;0.90;0.70;;;;;;;20.23;26.59;93886.09;4881044;29;20051;-66
2022/01/31 11:44:45;;;;;;;1.05;0.60;;;;;;;20.13;26.48;93881.66;4886883;29;20034;-67
2022/01/31 11:47:10;;;;;;;0.50;0.40;;;;;;;20.20;26.38;93881.34;4896659;29;20043;-66
2022/01/31 11:50:08;;;;;;;0.50;0.50;;;;;;;20.32;26.31;93887.13;4880354;29;20130;-66
2022/01/31 11:52:53;;;;;;;0.45;0.45;;;;;;;20.23;26.20;93875.53;4905242;29;20039;-66
2022/01/31 11:55:25;;;;;;;1.17;0.57;;;;;;;20.25;26.52;93876.84;4896773;29;20083;-67
2022/01/31 11:58:00;;;;;;;0.47;0.40;;;;;;;20.26;26.71;93878.44;4901133;29;20051;-66
2022/01/31 12:00:27;;;;;;;0.60;0.30;;;;;;;20.24;26.13;93869.22;4911434;29;20035;-66
2022/01/31 12:02:55;;;;;;;0.30;0.30;;;;;;;20.27;26.45;93876.56;4896761;29;20024;-67
2022/01/31 12:05:23;;;;;;;0.40;0.30;;;;;;;20.30;26.00;93895.31;4928570;29;20032;-66
2022/01/31 12:08:21;;;;;;;0.50;0.30;;;;;;;20.35;26.26;93885.78;4913216;29;20032;-66
2022/01/31 12:11:02;;;;;;;0.30;0.30;;;;;;;20.32;26.04;93876.56;4913029;29;20031;-67